Time;durP1;ratioP1;P1;durP2;ratioP2;P2;SDS_P1;SDS_P2;PMS_P1;PMS_P2;Temp;Humidity;BMP_temperature;BMP_pressure;BME280_temperature;BME280_humidity;BME280_pressure;Samples;Min_cycle;Max_cycle;Signal;HPM_P1;HPM_P2
2022/01/12 00:00:17;;;;;;;;;;;;;;;2.16;92.04;103580.94;4967200;28;19925;-74
2022/01/12 00:02:43;;;;;;;;;;;;;;;2.19;92.10;103585.44;4960825;28;19930;-74
2022/01/12 00:05:08;;;;;;;;;;;;;;;2.18;91.04;103587.06;4964330;28;19925;-74
2022/01/12 00:07:33;;;;;;;;;;;;;;;2.21;91.75;103599.19;4964417;28;19922;-75
2022/01/12 00:09:59;;;;;;;;;;;;;;;2.22;92.04;103601.00;4963123;28;19930;-75
2022/01/12 00:12:26;;;;;;;;;;;;;;;2.22;92.12;103595.91;4965736;28;19938;-77
2022/01/12 00:14:51;;;;;;;;;;;;;;;2.22;92.18;103601.88;4964082;28;19922;-75
2022/01/12 00:17:16;;;;;;;;;;;;;;;2.25;92.18;103604.75;4969678;28;20402;-75
2022/01/12 00:19:42;;;;;;;;;;;;;;;2.26;92.54;103611.63;4967165;28;19937;-74
2022/01/12 00:22:07;;;;;;;;;;;;;;;2.27;92.39;103607.47;4968085;28;19980;-74
2022/01/12 00:24:40;;;;;;;;;;;;;;;2.30;92.19;103608.66;4965711;28;19930;-74
2022/01/12 00:35:18;;;;;;;;;;;;;;;2.14;92.82;103635.72;4964896;28;20418;-74
2022/01/12 00:37:43;;;;;;;;;;;;;;;2.11;93.26;103635.38;4967511;28;19966;-74
2022/01/12 00:40:08;;;;;;;;;;;;;;;2.05;93.51;103635.63;4965405;28;20441;-74
2022/01/12 00:42:34;;;;;;;;;;;;;;;2.03;93.84;103631.16;4983416;28;20390;-74
2022/01/12 00:45:01;;;;;;;;;;;;;;;1.99;94.01;103642.59;4962498;28;19926;-74
2022/01/12 00:47:26;;;;;;;;;;;;;;;1.94;94.73;103650.44;4962876;28;19937;-74
2022/01/12 00:49:51;;;;;;;;;;;;;;;1.89;95.54;103652.53;4963612;28;19922;-75
2022/01/12 00:52:16;;;;;;;;;;;;;;;1.83;97.54;103652.75;4944275;28;19962;-74
2022/01/12 00:54:42;;;;;;;;;;;;;;;1.83;96.69;103662.91;4961509;28;19925;-75
2022/01/12 00:57:07;;;;;;;;;;;;;;;1.76;97.18;103660.44;4965941;28;19972;-74
2022/01/12 00:59:33;;;;;;;;;;;;;;;1.76;96.67;103654.44;4960318;28;19927;-76
2022/01/12 01:01:58;;;;;;;;;;;;;;;1.73;97.17;103656.66;4964465;28;20543;-74
2022/01/12 01:04:25;;;;;;;;;;;;;;;1.71;97.69;103661.59;4966164;28;19918;-75
2022/01/12 01:06:50;;;;;;;;;;;;;;;1.68;96.34;103653.63;4963234;28;19918;-74
2022/01/12 01:09:16;;;;;;;;;;;;;;;1.70;96.37;103658.84;4964367;28;19930;-74
2022/01/12 01:11:41;;;;;;;;;;;;;;;1.67;97.08;103654.38;4965545;28;20342;-74
2022/01/12 01:14:15;;;;;;;;;;;;;;;1.68;96.89;103648.56;4960416;28;19937;-74
2022/01/12 01:27:18;;;;;;;;;;;;;;;1.70;97.62;103639.50;4960170;28;19925;-74
2022/01/12 01:29:43;;;;;;;;;;;;;;;1.58;98.47;103646.66;4959486;28;20506;-75
2022/01/12 01:32:09;;;;;;;;;;;;;;;1.60;98.81;103654.44;4964432;28;19973;-75
2022/01/12 01:34:42;;;;;;;;;;;;;;;1.54;99.42;103651.25;4962418;28;19926;-75
2022/01/12 01:37:07;;;;;;;;;;;;;;;1.62;99.26;103663.09;4967629;28;19985;-75
2022/01/12 01:39:32;;;;;;;;;;;;;;;1.50;100.00;103662.66;4964393;28;19934;-74
2022/01/12 01:42:02;;;;;;;;;;;;;;;1.56;99.46;103670.03;4970705;28;19922;-75
2022/01/12 01:53:17;;;;;;;;;;;;;;;1.52;99.08;103676.44;4961262;28;19937;-74
2022/01/12 01:55:28;;;;;;;;;;;;;;;1.58;99.88;103648.31;4961131;28;19933;-75
2022/01/12 01:57:54;;;;;;;;;;;;;;;1.60;100.00;103646.84;4966439;28;19918;-75
2022/01/12 02:00:20;;;;;;;;;;;;;;;1.51;100.00;103644.19;4979990;28;19918;-74
2022/01/12 02:02:46;;;;;;;;;;;;;;;1.52;100.00;103638.41;4960877;28;20064;-74
2022/01/12 02:05:12;;;;;;;;;;;;;;;1.60;100.00;103639.22;4963676;28;20025;-75
2022/01/12 02:07:37;;;;;;;;;;;;;;;1.67;100.00;103634.06;4957631;28;19926;-75
2022/01/12 02:10:03;;;;;;;;;;;;;;;1.55;100.00;103632.75;4962955;28;19925;-74
2022/01/12 02:12:29;;;;;;;;;;;;;;;1.50;100.00;103634.78;4962158;28;20021;-74
2022/01/12 02:15:00;;;;;;;;;;;;;;;1.55;100.00;103630.22;4960761;28;19922;-74
2022/01/12 02:17:33;;;;;;;;;;;;;;;1.54;100.00;103644.53;4962043;28;20394;-75
2022/01/12 02:36:25;;;;;;;;;;;;;;;1.52;100.00;103673.00;4962737;28;19937;-74
2022/01/12 02:41:37;;;;;;;;;;;;;;;1.53;100.00;103673.16;4959885;28;19925;-75
2022/01/12 02:54:48;;;;;;;;;;;;;;;1.47;100.00;103681.75;4961391;28;19919;-75
2022/01/12 02:57:13;;;;;;;;;;;;;;;1.55;100.00;103686.00;4958093;28;20435;-75
2022/01/12 02:59:50;;;;;;;;;;;;;;;1.50;100.00;103695.63;4960569;28;20065;-75
2022/01/12 03:02:38;;;;;;;;;;;;;;;1.51;100.00;103702.50;4962954;28;20459;-74
2022/01/12 03:07:48;;;;;;;;;;;;;;;1.57;100.00;103712.41;4960695;28;20287;-76
2022/01/12 03:10:15;;;;;;;;;;;;;;;1.53;100.00;103716.28;4969512;28;19930;-75
2022/01/12 03:12:43;;;;;;;;;;;;;;;1.54;100.00;103713.00;4980226;28;20407;-74
2022/01/12 03:15:09;;;;;;;;;;;;;;;1.53;100.00;103725.53;4962460;28;20450;-75
2022/01/12 03:17:34;;;;;;;;;;;;;;;1.54;100.00;103728.22;4964317;28;19929;-75
2022/01/12 03:20:00;;;;;;;;;;;;;;;1.57;100.00;103732.72;4959062;28;20399;-75
2022/01/12 03:22:25;;;;;;;;;;;;;;;1.60;100.00;103726.34;4958045;28;19926;-74
2022/01/12 03:24:50;;;;;;;;;;;;;;;1.58;100.00;103725.28;4960249;28;20295;-75
2022/01/12 03:27:16;;;;;;;;;;;;;;;1.59;100.00;103721.13;4958186;28;19933;-75
2022/01/12 03:29:43;;;;;;;;;;;;;;;1.59;100.00;103727.09;4964311;28;20388;-75
2022/01/12 03:32:11;;;;;;;;;;;;;;;1.59;100.00;103716.94;4963028;28;19930;-75
2022/01/12 03:34:39;;;;;;;;;;;;;;;1.60;100.00;103721.28;4956165;28;19926;-74
2022/01/12 03:39:48;;;;;;;;;;;;;;;1.56;100.00;103723.31;4965584;28;19929;-75
2022/01/12 03:42:13;;;;;;;;;;;;;;;1.56;100.00;103724.19;4945751;28;19930;-75
2022/01/12 03:44:39;;;;;;;;;;;;;;;1.57;100.00;103718.38;4963256;28;19918;-75
2022/01/12 03:47:04;;;;;;;;;;;;;;;1.57;100.00;103717.50;4967171;28;19922;-75
2022/01/12 03:49:29;;;;;;;;;;;;;;;1.57;100.00;103722.56;4967764;28;19922;-75
2022/01/12 03:51:54;;;;;;;;;;;;;;;1.58;100.00;103730.38;4963048;28;20024;-75
2022/01/12 03:54:20;;;;;;;;;;;;;;;1.57;100.00;103737.78;4970184;28;20005;-74
2022/01/12 03:56:46;;;;;;;;;;;;;;;1.57;100.00;103745.38;4964077;28;19922;-75
2022/01/12 03:59:11;;;;;;;;;;;;;;;1.56;100.00;103749.56;4964832;28;19980;-75
2022/01/12 04:01:37;;;;;;;;;;;;;;;1.58;100.00;103750.66;4965801;28;19932;-75
2022/01/12 04:04:06;;;;;;;;;;;;;;;1.60;100.00;103751.72;4961233;28;20320;-75
2022/01/12 04:09:15;;;;;;;;;;;;;;;1.59;100.00;103742.31;4960858;28;19925;-74
2022/01/12 04:11:41;;;;;;;;;;;;;;;1.60;100.00;103743.22;4964198;28;20432;-75
2022/01/12 04:14:06;;;;;;;;;;;;;;;1.60;100.00;103744.09;4966083;28;19925;-75
2022/01/12 04:16:32;;;;;;;;;;;;;;;1.59;100.00;103741.41;4963357;28;19918;-75
2022/01/12 04:18:57;;;;;;;;;;;;;;;1.61;100.00;103743.38;4964632;28;19925;-75
2022/01/12 04:21:28;;;;;;;;;;;;;;;1.62;100.00;103749.34;4964174;28;19918;-75
2022/01/12 04:23:53;;;;;;;;;;;;;;;1.66;100.00;103737.91;4983075;28;19926;-75
2022/01/12 04:26:18;;;;;;;;;;;;;;;1.70;100.00;103737.50;4966631;28;19924;-74
2022/01/12 04:28:44;;;;;;;;;;;;;;;1.73;100.00;103736.19;4962589;28;20375;-74
2022/01/12 04:31:10;;;;;;;;;;;;;;;1.70;100.00;103735.88;4962865;28;20408;-75
2022/01/12 04:33:36;;;;;;;;;;;;;;;1.73;100.00;103751.44;4964103;28;19926;-75
2022/01/12 04:36:02;;;;;;;;;;;;;;;1.72;100.00;103739.47;4981292;28;20017;-75
2022/01/12 04:38:30;;;;;;;;;;;;;;;1.68;100.00;103732.25;4966124;28;20006;-75
2022/01/12 04:40:55;;;;;;;;;;;;;;;1.73;100.00;103720.97;4968242;28;20419;-75
2022/01/12 04:43:22;;;;;;;;;;;;;;;1.74;100.00;103726.94;4960817;28;19957;-74
2022/01/12 04:50:42;;;;;;;;;;;;;;;1.67;100.00;103742.25;4966287;28;19929;-74
2022/01/12 04:53:07;;;;;;;;;;;;;;;1.73;100.00;103731.13;4959406;28;19976;-74
2022/01/12 04:55:33;;;;;;;;;;;;;;;1.69;100.00;103728.09;4963625;28;20368;-73
2022/01/12 04:57:58;;;;;;;;;;;;;;;1.69;100.00;103728.97;4961366;28;20009;-75
2022/01/12 05:00:25;;;;;;;;;;;;;;;1.68;100.00;103717.03;4963599;28;19984;-75
2022/01/12 05:13:35;;;;;;;;;;;;;;;1.57;100.00;103727.63;4963446;28;19929;-74
2022/01/12 05:16:01;;;;;;;;;;;;;;;1.62;100.00;103736.66;4957623;28;19930;-74
2022/01/12 05:18:30;;;;;;;;;;;;;;;1.63;100.00;103740.09;4965173;28;19929;-74
2022/01/12 05:20:55;;;;;;;;;;;;;;;1.61;100.00;103730.69;4961244;28;20359;-75
2022/01/12 05:23:21;;;;;;;;;;;;;;;1.63;100.00;103730.84;4959818;28;20017;-75
2022/01/12 05:25:46;;;;;;;;;;;;;;;1.61;100.00;103735.75;4963715;28;19934;-75
2022/01/12 05:28:12;;;;;;;;;;;;;;;1.66;100.00;103737.91;4963922;28;19945;-75
2022/01/12 05:30:38;;;;;;;;;;;;;;;1.67;100.00;103734.63;4960045;28;19926;-75
2022/01/12 05:33:03;;;;;;;;;;;;;;;1.66;100.00;103748.06;4962640;28;19930;-75
2022/01/12 05:35:32;;;;;;;;;;;;;;;1.69;100.00;103758.53;4962999;28;19922;-75
2022/01/12 05:37:58;;;;;;;;;;;;;;;1.69;100.00;103753.44;4964840;28;19922;-75
2022/01/12 05:40:23;;;;;;;;;;;;;;;1.71;100.00;103760.50;4964036;28;19922;-75
2022/01/12 05:42:51;;;;;;;;;;;;;;;1.72;100.00;103758.88;4961579;28;19918;-75
2022/01/12 05:45:18;;;;;;;;;;;;;;;1.74;100.00;103759.94;4963412;28;19934;-75
2022/01/12 05:50:09;;;;;;;;;;;;;;;1.73;100.00;103763.22;4960763;28;19930;-76
2022/01/12 05:52:34;;;;;;;;;;;;;;;1.72;100.00;103758.88;4962308;28;19930;-75
2022/01/12 05:55:02;;;;;;;;;;;;;;;1.72;100.00;103751.25;4964615;28;19960;-74
2022/01/12 05:57:29;;;;;;;;;;;;;;;1.73;100.00;103755.59;4962578;28;19919;-75
2022/01/12 05:59:55;;;;;;;;;;;;;;;1.72;100.00;103753.81;4959917;28;19962;-75
2022/01/12 06:02:20;;;;;;;;;;;;;;;1.73;100.00;103753.97;4965495;28;20303;-74
2022/01/12 06:04:45;;;;;;;;;;;;;;;1.73;100.00;103758.13;4965879;28;20490;-75
2022/01/12 06:07:11;;;;;;;;;;;;;;;1.73;100.00;103755.59;4962926;28;19922;-75
2022/01/12 06:09:36;;;;;;;;;;;;;;;1.76;100.00;103758.47;4958530;28;20768;-75
2022/01/12 06:12:01;;;;;;;;;;;;;;;1.73;100.00;103761.56;4958578;28;20006;-75
2022/01/12 06:14:26;;;;;;;;;;;;;;;1.75;100.00;103769.34;4957802;28;19930;-76
2022/01/12 06:16:52;;;;;;;;;;;;;;;1.75;100.00;103771.88;4960405;28;19926;-74
2022/01/12 06:19:18;;;;;;;;;;;;;;;1.75;100.00;103774.41;4963435;28;19922;-75
2022/01/12 06:21:43;;;;;;;;;;;;;;;1.75;100.00;103790.53;4964046;28;20303;-75
2022/01/12 06:24:09;;;;;;;;;;;;;;;1.76;100.00;103796.50;4954765;28;19926;-74
2022/01/12 06:26:36;;;;;;;;;;;;;;;1.76;100.00;103793.97;4958863;28;20323;-74
2022/01/12 06:31:40;;;;;;;;;;;;;;;1.79;100.00;103799.41;4959914;28;19922;-75
2022/01/12 06:34:06;;;;;;;;;;;;;;;1.79;100.00;103809.56;4964385;28;19918;-74
2022/01/12 06:36:31;;;;;;;;;;;;;;;1.80;100.00;103808.81;4957327;28;20402;-75
2022/01/12 06:38:56;;;;;;;;;;;;;;;1.80;100.00;103813.88;4959998;28;19926;-74
2022/01/12 06:41:22;;;;;;;;;;;;;;;1.79;100.00;103817.16;4951791;28;19930;-75
2022/01/12 06:43:47;;;;;;;;;;;;;;;1.83;100.00;103826.94;4943440;28;19937;-74
2022/01/12 06:46:22;;;;;;;;;;;;;;;1.83;100.00;103824.38;4959763;28;19918;-74
2022/01/12 06:48:47;;;;;;;;;;;;;;;1.84;100.00;103826.19;4960127;28;19937;-74
2022/01/12 06:51:12;;;;;;;;;;;;;;;1.83;100.00;103822.75;4958206;28;19930;-74
2022/01/12 06:53:38;;;;;;;;;;;;;;;1.85;100.00;103817.84;4957623;28;19918;-74
2022/01/12 06:56:03;;;;;;;;;;;;;;;1.88;100.00;103823.22;4960547;28;19974;-74
2022/01/12 06:58:29;;;;;;;;;;;;;;;1.87;100.00;103826.50;4954881;28;20000;-74
2022/01/12 07:00:54;;;;;;;;;;;;;;;1.88;100.00;103835.91;4958520;28;19926;-74
2022/01/12 07:03:19;;;;;;;;;;;;;;;1.89;100.00;103835.22;4958800;28;19926;-74
2022/01/12 07:05:44;;;;;;;;;;;;;;;1.91;100.00;103836.28;4959956;28;20020;-75
2022/01/12 07:08:10;;;;;;;;;;;;;;;1.93;100.00;103847.47;4959465;28;19929;-74
2022/01/12 07:10:35;;;;;;;;;;;;;;;1.93;100.00;103847.47;4961972;28;19932;-75
2022/01/12 07:13:00;;;;;;;;;;;;;;;1.94;100.00;103845.84;4963382;28;20400;-75
2022/01/12 07:15:26;;;;;;;;;;;;;;;1.95;100.00;103842.59;4961173;28;19953;-76
2022/01/12 07:17:51;;;;;;;;;;;;;;;1.96;100.00;103845.31;4961145;28;19918;-74
2022/01/12 07:20:16;;;;;;;;;;;;;;;1.97;100.00;103846.19;4960885;28;19933;-74
2022/01/12 07:22:42;;;;;;;;;;;;;;;1.98;100.00;103846.34;4963259;28;19925;-73
2022/01/12 07:25:08;;;;;;;;;;;;;;;1.97;100.00;103852.19;4959423;28;20615;-75
2022/01/12 07:27:33;;;;;;;;;;;;;;;1.99;100.00;103857.41;4960667;28;19964;-74
2022/01/12 07:29:58;;;;;;;;;;;;;;;1.99;100.00;103859.94;4964129;28;19926;-76
2022/01/12 07:32:24;;;;;;;;;;;;;;;1.97;100.00;103862.31;4958790;28;19934;-77
2022/01/12 07:34:50;;;;;;;;;;;;;;;1.98;100.00;103874.28;4962353;28;19926;-74
2022/01/12 07:37:16;;;;;;;;;;;;;;;1.99;100.00;103880.25;4961658;28;19930;-75
2022/01/12 07:39:41;;;;;;;;;;;;;;;1.99;100.00;103878.63;4960711;28;20311;-73
2022/01/12 07:42:06;;;;;;;;;;;;;;;2.01;100.00;103883.88;4965181;28;19925;-74
2022/01/12 07:44:32;;;;;;;;;;;;;;;2.01;100.00;103889.84;4960506;28;19926;-73
2022/01/12 07:46:57;;;;;;;;;;;;;;;2.03;100.00;103892.56;4961562;28;19922;-71
2022/01/12 07:49:22;;;;;;;;;;;;;;;2.04;100.00;103897.78;4966484;28;19930;-73
2022/01/12 07:51:48;;;;;;;;;;;;;;;2.04;100.00;103891.81;4959340;28;20703;-72
2022/01/12 07:54:13;;;;;;;;;;;;;;;2.04;100.00;103895.25;4966870;28;19930;-74
2022/01/12 07:56:38;;;;;;;;;;;;;;;2.06;100.00;103900.50;4964963;28;19930;-74
2022/01/12 07:59:03;;;;;;;;;;;;;;;2.07;100.00;103905.78;4963934;28;19977;-74
2022/01/12 08:01:29;;;;;;;;;;;;;;;2.08;100.00;103922.78;4964522;28;19929;-73
2022/01/12 08:03:54;;;;;;;;;;;;;;;2.11;100.00;103924.75;4947058;28;20306;-76
2022/01/12 08:06:20;;;;;;;;;;;;;;;2.12;100.00;103930.03;4961701;28;20679;-73
2022/01/12 08:08:46;;;;;;;;;;;;;;;2.12;100.00;103937.66;4965409;28;19992;-71
2022/01/12 08:11:11;;;;;;;;;;;;;;;2.17;100.00;103942.31;4964863;28;20667;-71
2022/01/12 08:13:37;;;;;;;;;;;;;;;2.17;100.00;103935.59;4962590;28;19922;-71
2022/01/12 08:16:02;;;;;;;;;;;;;;;2.19;100.00;103936.69;4965369;28;20057;-72
2022/01/12 08:18:27;;;;;;;;;;;;;;;2.21;100.00;103932.69;4964865;28;20319;-71
2022/01/12 08:20:53;;;;;;;;;;;;;;;2.24;100.00;103937.16;4966360;28;19923;-70
2022/01/12 08:23:18;;;;;;;;;;;;;;;2.25;100.00;103950.06;4965275;28;20005;-70
2022/01/12 08:25:44;;;;;;;;;;;;;;;2.27;100.00;103942.59;4958921;28;19922;-70
2022/01/12 08:28:09;;;;;;;;;;;;;;;2.30;100.00;103945.47;4965030;28;19922;-70
2022/01/12 08:30:35;;;;;;;;;;;;;;;2.30;100.00;103945.47;4965623;28;19922;-71
2022/01/12 08:33:02;;;;;;;;;;;;;;;2.32;100.00;103952.53;4966150;28;20004;-71
2022/01/12 08:35:27;;;;;;;;;;;;;;;2.35;100.00;103947.78;4965593;28;19953;-71
2022/01/12 08:37:53;;;;;;;;;;;;;;;2.38;100.00;103944.69;4964760;28;19953;-71
2022/01/12 08:40:19;;;;;;;;;;;;;;;2.40;100.00;103939.03;4967428;28;19972;-71
2022/01/12 08:42:45;;;;;;;;;;;;;;;2.44;100.00;103945.38;4967238;28;19925;-71
2022/01/12 08:45:10;;;;;;;;;;;;;;;2.47;100.00;103937.16;4969563;28;20273;-71
2022/01/12 08:47:36;;;;;;;;;;;;;;;2.49;100.00;103944.25;4966361;28;20302;-71
2022/01/12 08:50:03;;;;;;;;;;;;;;;2.53;100.00;103943.81;4965678;28;19949;-72
2022/01/12 08:52:30;;;;;;;;;;;;;;;2.57;100.00;103956.13;4983755;28;19942;-71
2022/01/12 08:54:55;;;;;;;;;;;;;;;2.63;100.00;103961.00;4966703;28;19918;-71
2022/01/12 08:57:20;;;;;;;;;;;;;;;2.67;100.00;103960.59;4967242;28;19925;-71
2022/01/12 08:59:46;;;;;;;;;;;;;;;2.70;100.00;103963.47;4962554;28;19929;-71
2022/01/12 09:02:14;;;;;;;;;;;;;;;2.74;100.00;103968.16;4966041;28;19924;-71
2022/01/12 09:04:39;;;;;;;;;;;;;;;2.74;100.00;103968.16;4966975;28;19926;-71
2022/01/12 09:07:05;;;;;;;;;;;;;;;2.77;100.00;103981.16;4966997;28;19931;-71
2022/01/12 09:09:30;;;;;;;;;;;;;;;2.77;100.00;103985.34;4965565;28;20517;-71
2022/01/12 09:11:56;;;;;;;;;;;;;;;2.79;100.00;103988.97;4963902;28;19993;-71
2022/01/12 09:14:21;;;;;;;;;;;;;;;2.82;100.00;103994.38;4966264;28;19933;-74
2022/01/12 09:16:56;;;;;;;;;;;;;;;2.84;100.00;103996.34;4964828;28;19937;-70
2022/01/12 09:19:22;;;;;;;;;;;;;;;2.86;100.00;103994.91;4970557;28;19921;-70
2022/01/12 09:21:48;;;;;;;;;;;;;;;2.89;100.00;103994.31;4967776;28;20443;-71
2022/01/12 09:24:13;;;;;;;;;;;;;;;2.90;100.00;103999.56;4967002;28;20276;-70
2022/01/12 09:26:38;;;;;;;;;;;;;;;2.91;100.00;103998.84;4967099;28;19937;-70
2022/01/12 09:29:04;;;;;;;;;;;;;;;2.94;100.00;103996.63;4965008;28;19923;-71
2022/01/12 09:31:30;;;;;;;;;;;;;;;2.96;100.00;104001.88;4968141;28;19937;-71
2022/01/12 09:33:55;;;;;;;;;;;;;;;2.98;100.00;104005.50;4959398;28;19922;-71
2022/01/12 09:36:20;;;;;;;;;;;;;;;3.00;100.00;104013.28;4962437;28;20395;-71
2022/01/12 09:38:45;;;;;;;;;;;;;;;3.00;100.00;104014.19;4965578;28;19930;-72
2022/01/12 09:41:11;;;;;;;;;;;;;;;3.00;100.00;104019.28;4957952;28;19933;-71
2022/01/12 09:43:38;;;;;;;;;;;;;;;2.98;100.00;104023.28;4965865;28;20343;-71
2022/01/12 09:46:03;;;;;;;;;;;;;;;3.00;100.00;104028.53;4963031;28;19984;-71
2022/01/12 09:48:33;;;;;;;;;;;;;;;3.02;100.00;104029.59;4965860;28;19922;-71
2022/01/12 09:51:01;;;;;;;;;;;;;;;3.05;100.00;104027.41;4968215;28;19930;-71
2022/01/12 09:53:29;;;;;;;;;;;;;;;3.02;100.00;104037.22;4962450;28;19927;-71
2022/01/12 09:55:54;;;;;;;;;;;;;;;3.06;100.00;104039.38;4963793;28;20386;-71
2022/01/12 09:58:19;;;;;;;;;;;;;;;3.06;100.00;104041.91;4964366;28;19936;-70
2022/01/12 10:00:55;;;;;;;;;;;;;;;3.05;100.00;104043.56;4962879;28;19929;-71
2022/01/12 10:03:23;;;;;;;;;;;;;;;3.04;100.00;104049.38;4966223;28;19953;-71
2022/01/12 10:05:49;;;;;;;;;;;;;;;3.07;100.00;104054.78;4960783;28;20430;-70
2022/01/12 10:08:15;;;;;;;;;;;;;;;3.09;100.00;104058.38;4964696;28;19914;-70
2022/01/12 10:10:41;;;;;;;;;;;;;;;3.10;100.00;104062.78;4968662;28;19918;-71
2022/01/12 10:13:16;;;;;;;;;;;;;;;3.13;100.00;104055.47;4965060;28;19926;-70
2022/01/12 10:15:42;;;;;;;;;;;;;;;3.18;100.00;104053.41;4959122;28;20776;-71
2022/01/12 10:18:07;;;;;;;;;;;;;;;3.21;100.00;104054.63;4966245;28;19922;-70
2022/01/12 10:20:42;;;;;;;;;;;;;;;3.22;100.00;104056.47;4967981;28;19962;-69
2022/01/12 10:23:11;;;;;;;;;;;;;;;3.26;100.00;104056.78;4967385;28;19953;-70
2022/01/12 10:25:36;;;;;;;;;;;;;;;3.28;100.00;104045.16;4963596;28;19922;-70
2022/01/12 10:28:13;;;;;;;;;;;;;;;3.29;100.00;104047.88;4965740;28;20272;-70
2022/01/12 10:30:39;;;;;;;;;;;;;;;3.31;100.00;104040.41;4966558;28;19988;-70
2022/01/12 10:33:05;;;;;;;;;;;;;;;3.32;100.00;104039.66;4957810;28;20051;-70
2022/01/12 10:35:36;;;;;;;;;;;;;;;3.34;100.00;104040.75;4965861;28;20367;-71
2022/01/12 10:38:15;;;;;;;;;;;;;;;3.38;100.00;104043.75;4967865;28;20439;-70
2022/01/12 10:40:43;;;;;;;;;;;;;;;3.46;100.00;104052.22;4963768;28;19953;-70
2022/01/12 10:43:28;;;;;;;;;;;;;;;3.49;100.00;104056.00;4968596;28;19925;-70
2022/01/12 10:45:54;;;;;;;;;;;;;;;3.52;100.00;104057.97;4968761;28;19957;-69
2022/01/12 10:48:19;;;;;;;;;;;;;;;3.54;100.00;104053.94;4970471;28;19960;-71
2022/01/12 10:50:57;;;;;;;;;;;;;;;3.54;100.00;104041.22;4968446;28;19921;-70
2022/01/12 10:53:27;;;;;;;;;;;;;;;3.56;100.00;104038.84;4969878;28;19918;-69
2022/01/12 10:56:15;;;;;;;;;;;;;;;3.53;100.00;104044.53;4948995;28;20004;-69
2022/01/12 10:58:45;;;;;;;;;;;;;;;3.55;100.00;104049.75;4966371;28;19926;-69
2022/01/12 11:01:11;;;;;;;;;;;;;;;3.60;100.00;104054.59;4966968;28;20418;-69
2022/01/12 11:03:37;;;;;;;;;;;;;;;3.63;100.00;104057.47;4968945;28;19926;-70
2022/01/12 11:06:03;;;;;;;;;;;;;;;3.71;100.00;104056.66;4966265;28;19918;-70
2022/01/12 11:08:29;;;;;;;;;;;;;;;3.68;100.00;104046.13;4971691;28;19933;-69
2022/01/12 11:10:55;;;;;;;;;;;;;;;3.55;100.00;104052.31;4970604;28;20303;-69
2022/01/12 11:13:20;;;;;;;;;;;;;;;3.42;100.00;104061.16;4964940;28;19918;-70
2022/01/12 11:15:45;;;;;;;;;;;;;;;3.42;100.00;104053.53;4966762;28;19922;-70
2022/01/12 11:18:12;;;;;;;;;;;;;;;3.45;100.00;104050.41;4960462;28;20017;-69
2022/01/12 11:20:40;;;;;;;;;;;;;;;3.47;100.00;104056.56;4966392;28;20009;-69
2022/01/12 11:23:09;;;;;;;;;;;;;;;3.53;100.00;104061.44;4967030;28;20388;-69
2022/01/12 11:25:35;;;;;;;;;;;;;;;3.60;100.00;104072.41;4966541;28;19930;-70
2022/01/12 11:28:03;;;;;;;;;;;;;;;3.70;100.00;104064.09;4968874;28;19919;-70
2022/01/12 11:30:33;;;;;;;;;;;;;;;3.80;100.00;104068.56;4963648;28;19918;-72
2022/01/12 11:32:59;;;;;;;;;;;;;;;3.76;100.00;104067.31;4959315;28;19926;-70
2022/01/12 11:35:24;;;;;;;;;;;;;;;3.73;100.00;104070.44;4965344;28;19929;-70
2022/01/12 11:37:51;;;;;;;;;;;;;;;3.79;100.00;104069.28;4971303;28;20294;-70
2022/01/12 11:40:16;;;;;;;;;;;;;;;3.91;100.00;104060.41;4966627;28;19926;-69
2022/01/12 11:42:41;;;;;;;;;;;;;;;3.95;100.00;104054.91;4965383;28;19968;-69
2022/01/12 11:45:18;;;;;;;;;;;;;;;4.04;100.00;104053.31;4967182;28;19922;-70
2022/01/12 11:47:44;;;;;;;;;;;;;;;4.09;100.00;104041.97;4970680;28;19922;-70
2022/01/12 11:50:12;;;;;;;;;;;;;;;4.10;100.00;104048.88;4964927;28;19918;-70
2022/01/12 11:52:37;;;;;;;;;;;;;;;4.13;100.00;104051.75;4961159;28;19922;-70
2022/01/12 11:55:14;;;;;;;;;;;;;;;4.13;100.00;104045.75;4962693;28;19976;-70
2022/01/12 11:57:42;;;;;;;;;;;;;;;4.15;100.00;104047.72;4970350;28;19925;-70
2022/01/12 12:00:20;;;;;;;;;;;;;;;4.12;100.00;104060.13;4969172;28;20356;-70
2022/01/12 12:02:49;;;;;;;;;;;;;;;4.14;100.00;104055.22;4970610;28;19918;-70
2022/01/12 12:05:16;;;;;;;;;;;;;;;4.17;100.00;104048.75;4967625;28;19926;-71
2022/01/12 12:07:43;;;;;;;;;;;;;;;4.25;100.00;104059.78;4967913;28;19929;-71
2022/01/12 12:10:10;;;;;;;;;;;;;;;4.29;100.00;104059.34;4965966;28;19914;-71
2022/01/12 12:12:37;;;;;;;;;;;;;;;4.26;100.00;104049.75;4959349;28;19937;-71
2022/01/12 12:15:06;;;;;;;;;;;;;;;4.24;100.00;104053.75;4964560;28;19922;-73
2022/01/12 12:17:33;;;;;;;;;;;;;;;4.19;100.00;104054.94;4965419;28;19914;-70
2022/01/12 12:19:59;;;;;;;;;;;;;;;4.21;100.00;104052.56;4964763;28;19922;-70
2022/01/12 12:22:26;;;;;;;;;;;;;;;4.24;100.00;104058.84;4969824;28;19922;-71
2022/01/12 12:25:04;;;;;;;;;;;;;;;4.30;100.00;104063.69;4964094;28;20057;-70
2022/01/12 12:27:30;;;;;;;;;;;;;;;4.37;100.00;104057.56;4967350;28;19925;-70
2022/01/12 12:29:56;;;;;;;;;;;;;;;4.42;100.00;104058.97;4968101;28;19929;-70
2022/01/12 12:32:32;;;;;;;;;;;;;;;4.46;100.00;104053.47;4967136;28;20670;-70
2022/01/12 12:34:59;;;;;;;;;;;;;;;4.42;100.00;104049.66;4965919;28;20371;-70
2022/01/12 12:37:33;;;;;;;;;;;;;;;4.42;100.00;104047.13;4965126;28;20380;-70
2022/01/12 12:39:59;;;;;;;;;;;;;;;4.34;100.00;104035.25;4965413;28;19941;-71
2022/01/12 12:42:25;;;;;;;;;;;;;;;4.37;100.00;104027.00;4969671;28;19930;-71
2022/01/12 12:44:55;;;;;;;;;;;;;;;4.43;100.00;104014.91;4965963;28;19918;-71
2022/01/12 12:47:21;;;;;;;;;;;;;;;4.43;100.00;104026.03;4965937;28;19978;-70
2022/01/12 12:49:56;;;;;;;;;;;;;;;4.42;100.00;104025.84;4961889;28;20413;-70
2022/01/12 12:52:24;;;;;;;;;;;;;;;4.39;100.00;104023.00;4955230;28;20373;-70
2022/01/12 12:54:50;;;;;;;;;;;;;;;4.39;100.00;104023.00;4959979;28;19915;-70
2022/01/12 12:57:21;;;;;;;;;;;;;;;4.42;100.00;104028.38;4962454;28;20478;-71
2022/01/12 12:59:47;;;;;;;;;;;;;;;4.43;100.00;104022.53;4967144;28;20302;-71
2022/01/12 13:02:12;;;;;;;;;;;;;;;4.44;100.00;104010.00;4966091;28;19964;-71
2022/01/12 13:04:38;;;;;;;;;;;;;;;4.45;100.00;104014.34;4959054;28;20006;-70
2022/01/12 13:07:10;;;;;;;;;;;;;;;4.47;100.00;104024.69;4965530;28;19933;-70
2022/01/12 13:09:35;;;;;;;;;;;;;;;4.48;100.00;104032.47;4962971;28;19925;-71
2022/01/12 13:12:02;;;;;;;;;;;;;;;4.44;100.00;104038.00;4966749;28;19922;-70
2022/01/12 13:14:29;;;;;;;;;;;;;;;4.34;100.00;104032.69;4965536;28;20406;-70
2022/01/12 13:16:54;;;;;;;;;;;;;;;4.35;100.00;104041.25;4960213;28;19970;-70
2022/01/12 13:22:26;;;;;;;;;;;;;;;4.36;100.00;104027.75;4968939;28;19929;-71
2022/01/12 13:24:52;;;;;;;;;;;;;;;4.42;100.00;104038.56;4964145;28;19923;-71
2022/01/12 13:27:25;;;;;;;;;;;;;;;4.45;100.00;104038.91;5086888;27;1966568;-70
2022/01/12 13:29:51;;;;;;;;;;;;;;;4.53;100.00;104035.50;5144920;27;20562;-71
2022/01/12 13:32:17;;;;;;;;;;;;;;;4.54;100.00;104043.28;5121610;27;19915;-70
2022/01/12 13:34:53;;;;;;;;;;;;;;;4.59;100.00;104041.22;5140858;27;19993;-70
2022/01/12 13:37:18;;;;;;;;;;;;;;;4.62;100.00;104046.66;5135954;27;19926;-70
2022/01/12 13:39:43;;;;;;;;;;;;;;;4.62;100.00;104053.41;5118001;27;19924;-70
2022/01/12 13:42:09;;;;;;;;;;;;;;;4.64;100.00;104060.44;5123098;27;19969;-70
2022/01/12 13:44:34;;;;;;;;;;;;;;;4.68;100.00;104044.72;5140367;27;20371;-70
2022/01/12 13:49:29;;;;;;;;;;;;;;;4.62;100.00;104045.75;5143869;27;19912;-70
2022/01/12 13:52:00;;;;;;;;;;;;;;;4.58;100.00;104047.06;5122217;27;19926;-71
2022/01/12 13:54:34;;;;;;;;;;;;;;;4.54;100.00;104066.22;5139483;27;20013;-69
2022/01/12 13:57:00;;;;;;;;;;;;;;;4.52;100.00;104049.00;5141520;27;19930;-71
2022/01/12 13:59:28;;;;;;;;;;;;;;;4.47;100.00;104045.06;5123153;27;19919;-69
2022/01/12 14:01:54;;;;;;;;;;;;;;;4.41;100.00;104035.13;5122937;27;19919;-70
2022/01/12 14:04:30;;;;;;;;;;;;;;;4.32;100.00;104030.75;5114599;28;19927;-71
2022/01/12 14:07:00;;;;;;;;;;;;;;;4.19;100.00;104028.56;5124437;27;19963;-71